Time;durP1;ratioP1;P1;durP2;ratioP2;P2;SDS_P1;SDS_P2;PMS_P1;PMS_P2;Temp;Humidity;BMP_temperature;BMP_pressure;BME280_temperature;BME280_humidity;BME280_pressure;Samples;Min_cycle;Max_cycle;Signal;HPM_P1;HPM_P2
2022/04/10 00:01:19;;;;;;;7.47;2.20;;;4.70;99.90;;;;;;4930605;29;20623;-77
2022/04/10 00:03:44;;;;;;;5.70;2.03;;;4.60;99.90;;;;;;4914661;29;20231;-77
2022/04/10 00:06:10;;;;;;;5.17;2.13;;;4.60;99.90;;;;;;4928906;29;20227;-78
2022/04/10 00:08:36;;;;;;;5.93;1.77;;;4.60;99.90;;;;;;4911206;29;20211;-77
2022/04/10 00:11:01;;;;;;;4.13;2.43;;;4.60;99.90;;;;;;4913812;29;20219;-76
2022/04/10 00:13:26;;;;;;;2.90;2.03;;;4.60;99.90;;;;;;4907966;29;20235;-79
2022/04/10 00:15:52;;;;;;;4.83;2.27;;;4.60;99.90;;;;;;4928953;29;20215;-78
2022/04/10 00:18:18;;;;;;;7.17;1.80;;;4.60;99.90;;;;;;4913096;29;20218;-77
2022/04/10 00:20:44;;;;;;;4.93;1.83;;;4.70;99.90;;;;;;4939913;29;20661;-80
2022/04/10 00:23:10;;;;;;;7.03;2.50;;;4.70;99.90;;;;;;4928827;29;20243;-80
2022/04/10 00:25:36;;;;;;;4.37;2.10;;;4.70;99.90;;;;;;4920395;29;20275;-81
2022/04/10 00:28:01;;;;;;;6.97;2.10;;;4.60;99.90;;;;;;4918181;29;20224;-79
2022/04/10 00:30:27;;;;;;;4.47;1.90;;;4.60;99.90;;;;;;4944384;29;20238;-79
2022/04/10 00:32:53;;;;;;;4.97;1.93;;;4.50;99.90;;;;;;4944206;29;20223;-79
2022/04/10 00:35:18;;;;;;;6.63;2.27;;;4.50;99.90;;;;;;4938215;29;20238;-79
2022/04/10 00:37:44;;;;;;;5.97;2.57;;;4.50;99.90;;;;;;4928025;29;20268;-79
2022/04/10 00:40:09;;;;;;;8.37;2.60;;;4.60;99.90;;;;;;4923974;29;20594;-80
2022/04/10 00:42:40;;;;;;;5.70;2.30;;;4.60;99.90;;;;;;4926927;29;20221;-80
2022/04/10 00:45:07;;;;;;;6.57;2.20;;;4.70;99.90;;;;;;4933312;29;20274;-82
2022/04/10 00:47:33;;;;;;;5.10;2.80;;;4.60;99.90;;;;;;4925752;29;20304;-80
2022/04/10 00:50:04;;;;;;;6.53;2.40;;;4.70;99.90;;;;;;4938446;29;20290;-79
2022/04/10 00:52:30;;;;;;;8.07;2.83;;;4.70;99.90;;;;;;4936888;29;21056;-79
2022/04/10 00:54:56;;;;;;;7.20;2.43;;;4.70;99.90;;;;;;4936688;29;20179;-79
2022/04/10 00:57:23;;;;;;;6.27;2.37;;;4.50;99.90;;;;;;4918513;29;20184;-80
2022/04/10 00:59:49;;;;;;;5.43;2.30;;;4.60;99.90;;;;;;4917296;29;20237;-79
2022/04/10 01:02:14;;;;;;;6.43;2.40;;;4.50;99.90;;;;;;4942948;29;20222;-79
2022/04/10 01:04:40;;;;;;;9.60;2.67;;;4.50;99.90;;;;;;4918233;29;20215;-77
2022/04/10 01:07:06;;;;;;;10.07;3.40;;;4.40;99.90;;;;;;4937423;29;20223;-80
2022/04/10 01:09:32;;;;;;;4.97;2.90;;;4.40;99.90;;;;;;4922952;29;20210;-80
2022/04/10 01:11:59;;;;;;;7.83;3.53;;;4.40;99.90;;;;;;4945373;29;20214;-81
2022/04/10 01:14:24;;;;;;;7.57;2.63;;;4.30;99.90;;;;;;4924805;29;20258;-79
2022/04/10 01:16:50;;;;;;;3.43;2.50;;;4.40;99.90;;;;;;4930208;29;20572;-79
2022/04/10 01:19:17;;;;;;;6.57;2.63;;;4.30;99.90;;;;;;4937423;29;20219;-80
2022/04/10 01:21:44;;;;;;;8.50;3.13;;;4.30;99.90;;;;;;4942525;29;20207;-80
2022/04/10 01:24:11;;;;;;;7.43;3.20;;;4.30;99.90;;;;;;4948664;29;20281;-80
2022/04/10 01:26:37;;;;;;;7.90;2.30;;;4.30;99.90;;;;;;4931525;29;20219;-80
2022/04/10 01:29:10;;;;;;;5.07;2.23;;;4.40;99.90;;;;;;4918394;29;20222;-79
2022/04/10 01:31:38;;;;;;;5.60;2.77;;;4.40;99.90;;;;;;4935149;29;20206;-79
2022/04/10 01:34:06;;;;;;;6.70;2.97;;;4.30;99.90;;;;;;4919031;29;20177;-79
2022/04/10 01:36:33;;;;;;;6.73;2.63;;;4.20;99.90;;;;;;4924028;29;20205;-80
2022/04/10 01:39:00;;;;;;;5.90;2.37;;;4.20;99.90;;;;;;4953125;29;20214;-80
2022/04/10 01:41:27;;;;;;;11.13;3.13;;;4.20;99.90;;;;;;4944081;29;20320;-80
2022/04/10 01:43:55;;;;;;;7.57;2.83;;;4.20;99.90;;;;;;4949362;29;20216;-80
2022/04/10 01:46:23;;;;;;;9.13;2.97;;;4.10;99.90;;;;;;4922017;29;20232;-77
2022/04/10 01:48:49;;;;;;;6.83;3.00;;;4.10;99.90;;;;;;4927759;29;20187;-79
2022/04/10 01:51:15;;;;;;;8.87;2.63;;;4.10;99.90;;;;;;4935614;29;20182;-79
2022/04/10 01:53:41;;;;;;;6.23;2.77;;;4.00;99.90;;;;;;4938633;29;20242;-80
2022/04/10 01:56:07;;;;;;;10.97;2.80;;;4.00;99.90;;;;;;4921711;29;20209;-79
2022/04/10 01:58:41;;;;;;;4.10;2.63;;;3.90;99.90;;;;;;4920629;29;20224;-80
2022/04/10 02:01:09;;;;;;;6.30;2.77;;;3.90;99.90;;;;;;4939730;29;20231;-80
2022/04/10 02:03:35;;;;;;;9.60;3.37;;;3.90;99.90;;;;;;4939190;29;20213;-79
2022/04/10 02:06:02;;;;;;;6.43;2.77;;;3.90;99.90;;;;;;4940399;29;20250;-79
2022/04/10 02:08:28;;;;;;;5.63;2.43;;;3.90;99.90;;;;;;4936254;29;20212;-80
2022/04/10 02:10:54;;;;;;;12.83;3.37;;;3.90;99.90;;;;;;4938549;29;20285;-80
2022/04/10 02:13:20;;;;;;;6.67;2.97;;;3.90;99.90;;;;;;4938119;29;20228;-79
2022/04/10 02:15:46;;;;;;;4.63;2.80;;;3.90;99.90;;;;;;4929850;29;20172;-80
2022/04/10 02:18:12;;;;;;;10.93;3.13;;;3.80;99.90;;;;;;4936324;29;20220;-80
2022/04/10 02:20:40;;;;;;;7.13;2.97;;;3.80;99.90;;;;;;4917277;29;20248;-78
2022/04/10 02:23:06;;;;;;;8.30;3.23;;;3.80;99.90;;;;;;4926793;29;20632;-80
2022/04/10 02:25:31;;;;;;;3.37;2.47;;;3.80;99.90;;;;;;4917764;29;20220;-79
2022/04/10 02:27:57;;;;;;;3.93;2.47;;;3.80;99.90;;;;;;4915852;29;20605;-77
2022/04/10 02:30:22;;;;;;;9.53;3.13;;;3.80;99.90;;;;;;4919661;29;20199;-79
2022/04/10 02:32:48;;;;;;;6.23;2.83;;;3.80;99.90;;;;;;4926792;29;20220;-81
2022/04/10 02:35:14;;;;;;;5.30;2.87;;;3.80;99.90;;;;;;4931380;29;20787;-80
2022/04/10 02:37:40;;;;;;;6.17;3.20;;;3.80;99.90;;;;;;4917487;29;20218;-78
2022/04/10 02:40:07;;;;;;;8.17;3.50;;;3.90;99.90;;;;;;4909332;29;21356;-80
2022/04/10 02:42:36;;;;;;;4.57;3.20;;;3.80;99.90;;;;;;4938091;29;20293;-82
2022/04/10 02:45:03;;;;;;;10.03;4.03;;;3.80;99.90;;;;;;4935321;29;20199;-82
2022/04/10 02:47:30;;;;;;;7.63;3.20;;;3.80;99.90;;;;;;4924064;29;20642;-81
2022/04/10 02:49:56;;;;;;;7.90;3.67;;;3.80;99.90;;;;;;4944382;29;20213;-82
2022/04/10 02:52:22;;;;;;;9.00;3.50;;;3.80;99.90;;;;;;4947365;29;20228;-83
2022/04/10 02:54:47;;;;;;;8.20;3.47;;;3.80;99.90;;;;;;4929979;29;20172;-80
2022/04/10 02:57:13;;;;;;;7.17;3.63;;;3.80;99.90;;;;;;4949873;29;20219;-80
2022/04/10 02:59:38;;;;;;;12.10;3.57;;;3.80;99.90;;;;;;4931378;29;20263;-81
2022/04/10 03:02:04;;;;;;;12.00;3.43;;;3.80;99.90;;;;;;4939896;29;20231;-80
2022/04/10 03:04:30;;;;;;;7.90;3.70;;;3.90;99.90;;;;;;4934013;29;20245;-80
2022/04/10 03:06:55;;;;;;;9.60;4.17;;;4.00;99.90;;;;;;4920339;29;20198;-80
2022/04/10 03:09:21;;;;;;;10.73;3.77;;;3.90;99.90;;;;;;4921153;29;20177;-77
2022/04/10 03:11:46;;;;;;;7.47;3.53;;;4.00;99.90;;;;;;4912953;29;20641;-80
2022/04/10 03:14:12;;;;;;;15.23;3.50;;;4.00;99.90;;;;;;4931164;29;20649;-80
2022/04/10 03:16:37;;;;;;;8.20;3.63;;;4.10;99.90;;;;;;4938148;29;20210;-79
2022/04/10 03:19:03;;;;;;;8.57;2.97;;;4.00;99.90;;;;;;4935556;29;20562;-80
2022/04/10 03:21:29;;;;;;;12.33;3.63;;;4.00;99.90;;;;;;4933151;29;20262;-80
2022/04/10 03:23:55;;;;;;;11.17;3.87;;;4.10;99.90;;;;;;4920124;29;20219;-80
2022/04/10 03:26:20;;;;;;;15.10;3.30;;;3.90;99.90;;;;;;4921027;29;20234;-80
2022/04/10 03:28:46;;;;;;;7.93;3.63;;;4.00;99.90;;;;;;4938030;29;20214;-80
2022/04/10 03:31:11;;;;;;;9.90;3.30;;;3.90;99.90;;;;;;4930953;29;20218;-80
2022/04/10 03:33:37;;;;;;;7.23;3.00;;;3.90;99.90;;;;;;4933014;29;20214;-81
2022/04/10 03:36:03;;;;;;;8.07;3.57;;;3.90;99.90;;;;;;4944344;29;20289;-80
2022/04/10 03:38:28;;;;;;;9.07;3.33;;;3.90;99.90;;;;;;4944724;29;20294;-80
2022/04/10 03:40:54;;;;;;;11.07;3.47;;;4.00;99.90;;;;;;4941719;29;20219;-80
2022/04/10 03:43:19;;;;;;;7.53;2.97;;;3.90;99.90;;;;;;4934450;29;20236;-81
2022/04/10 03:45:45;;;;;;;7.87;3.27;;;3.90;99.90;;;;;;4938981;29;20217;-80
2022/04/10 03:48:10;;;;;;;10.57;3.40;;;3.90;99.90;;;;;;4938250;29;20220;-80
2022/04/10 03:50:36;;;;;;;10.97;3.10;;;3.90;99.90;;;;;;4930100;29;20234;-80
2022/04/10 03:53:02;;;;;;;11.00;3.20;;;3.90;99.90;;;;;;4938652;23;20703;-73
2022/04/10 03:55:28;;;;;;;6.23;3.17;;;4.00;99.90;;;;;;4916614;29;20221;-74
2022/04/10 03:57:54;;;;;;;10.13;3.23;;;3.90;99.90;;;;;;4916347;29;20238;-73
2022/04/10 04:00:19;;;;;;;8.83;2.93;;;4.00;99.90;;;;;;4899696;29;20255;-73
2022/04/10 04:02:45;;;;;;;9.57;3.20;;;3.90;99.90;;;;;;4899253;29;20208;-74
2022/04/10 04:05:11;;;;;;;10.67;3.30;;;4.00;99.90;;;;;;4916515;29;20204;-73
2022/04/10 04:07:38;;;;;;;8.77;3.37;;;4.00;99.90;;;;;;4916155;29;20657;-72
2022/04/10 04:10:05;;;;;;;14.73;3.23;;;3.90;99.90;;;;;;4899079;29;20551;-72
2022/04/10 04:12:31;;;;;;;11.23;3.53;;;3.90;99.90;;;;;;4916758;29;20272;-72
2022/04/10 04:14:57;;;;;;;9.23;2.87;;;3.90;99.90;;;;;;4916520;29;20217;-72
2022/04/10 04:17:22;;;;;;;7.80;3.57;;;3.90;99.90;;;;;;4916288;29;20227;-72
2022/04/10 04:19:50;;;;;;;12.40;3.80;;;4.00;99.90;;;;;;4898541;29;20764;-72
2022/04/10 04:22:16;;;;;;;8.70;3.20;;;4.00;99.90;;;;;;4916647;29;20691;-74
2022/04/10 04:24:42;;;;;;;6.40;2.60;;;4.00;99.90;;;;;;4917663;29;20626;-73
2022/04/10 04:27:07;;;;;;;8.80;2.60;;;4.00;99.90;;;;;;4899175;29;20226;-72
2022/04/10 04:29:33;;;;;;;9.23;3.20;;;4.10;99.90;;;;;;4915159;29;20217;-73
2022/04/10 04:31:58;;;;;;;9.57;3.73;;;4.00;99.90;;;;;;4919799;29;20256;-72
2022/04/10 04:34:24;;;;;;;13.43;3.27;;;4.10;99.90;;;;;;4934849;29;20242;-72
2022/04/10 04:36:49;;;;;;;9.27;3.23;;;4.10;99.90;;;;;;4935084;29;20619;-73
2022/04/10 04:39:15;;;;;;;12.37;3.83;;;4.10;99.90;;;;;;4935017;29;20173;-72
2022/04/10 04:41:40;;;;;;;12.80;2.93;;;4.10;99.90;;;;;;4917560;29;20301;-72
2022/04/10 04:44:06;;;;;;;11.97;3.10;;;4.10;99.90;;;;;;4934919;29;20226;-73
2022/04/10 04:46:32;;;;;;;8.20;2.83;;;4.10;99.90;;;;;;4917582;29;20266;-73
2022/04/10 04:48:57;;;;;;;10.20;3.10;;;4.10;99.90;;;;;;4932382;29;20675;-72
2022/04/10 04:51:23;;;;;;;7.67;3.27;;;4.20;99.90;;;;;;4935270;29;20322;-72
2022/04/10 04:53:49;;;;;;;8.50;2.87;;;4.20;99.90;;;;;;4934548;29;20220;-73
2022/04/10 04:56:15;;;;;;;8.47;3.80;;;4.30;99.90;;;;;;4934787;29;20208;-72
2022/04/10 04:58:41;;;;;;;9.03;3.37;;;4.30;99.90;;;;;;4934098;29;20217;-72
2022/04/10 05:01:07;;;;;;;7.40;3.10;;;4.30;99.90;;;;;;4929570;29;20236;-73
2022/04/10 05:03:32;;;;;;;11.50;3.27;;;4.30;99.90;;;;;;4933424;29;20214;-73
2022/04/10 05:05:58;;;;;;;11.00;3.80;;;4.40;99.90;;;;;;4934790;29;20210;-73
2022/04/10 05:08:23;;;;;;;10.87;3.70;;;4.60;99.90;;;;;;4933647;29;20305;-73
2022/04/10 05:10:49;;;;;;;7.57;3.03;;;4.80;99.90;;;;;;4917453;29;20210;-73
2022/04/10 05:13:14;;;;;;;7.63;2.63;;;5.40;99.90;;;;;;4917279;29;20298;-73
2022/04/10 05:15:40;;;;;;;10.23;2.83;;;6.10;99.90;;;;;;4917667;29;20551;-74
2022/04/10 05:18:05;;;;;;;7.97;2.90;;;5.90;99.90;;;;;;4933952;29;20250;-73
2022/04/10 05:20:31;;;;;;;4.77;2.23;;;5.80;99.90;;;;;;4934240;29;20223;-73
2022/04/10 05:22:56;;;;;;;10.73;3.20;;;5.70;99.90;;;;;;4917288;29;20229;-73
2022/04/10 05:25:22;;;;;;;9.30;3.50;;;5.50;99.90;;;;;;4934227;29;20216;-72
2022/04/10 05:27:48;;;;;;;9.70;3.13;;;5.30;99.90;;;;;;4934236;29;20266;-73
2022/04/10 05:30:13;;;;;;;7.70;2.53;;;5.30;99.90;;;;;;4934414;29;20191;-72
2022/04/10 05:32:42;;;;;;;6.20;2.67;;;5.40;99.90;;;;;;4927119;29;20223;-73
2022/04/10 05:35:09;;;;;;;12.97;2.87;;;5.30;99.90;;;;;;4934148;29;20598;-72
2022/04/10 05:37:35;;;;;;;8.80;3.07;;;5.10;99.90;;;;;;4934152;29;20270;-72
2022/04/10 05:40:00;;;;;;;8.10;2.67;;;5.10;99.90;;;;;;4916096;29;20211;-72
2022/04/10 05:42:26;;;;;;;5.60;2.53;;;5.20;99.90;;;;;;4934802;29;20187;-72
2022/04/10 05:44:51;;;;;;;12.10;3.17;;;5.30;99.90;;;;;;4934000;29;20262;-72
2022/04/10 05:47:17;;;;;;;6.77;2.83;;;6.50;99.90;;;;;;4933984;29;20222;-73
2022/04/10 05:49:42;;;;;;;9.77;2.20;;;7.50;99.90;;;;;;4915926;29;20208;-73
2022/04/10 05:52:08;;;;;;;6.90;2.73;;;6.40;99.90;;;;;;4934273;29;20203;-72
2022/04/10 05:54:33;;;;;;;10.30;3.90;;;5.80;99.90;;;;;;4917301;29;20589;-73
2022/04/10 05:56:59;;;;;;;11.30;3.30;;;6.40;99.90;;;;;;4933846;29;20207;-72
2022/04/10 05:59:24;;;;;;;6.67;2.70;;;6.20;99.90;;;;;;4916180;29;20210;-72
2022/04/10 06:01:50;;;;;;;11.20;2.97;;;6.00;99.90;;;;;;4926719;29;20771;-72
2022/04/10 06:04:16;;;;;;;10.13;2.63;;;5.80;99.90;;;;;;4933642;29;20264;-72
2022/04/10 06:06:42;;;;;;;11.30;2.83;;;5.70;99.90;;;;;;4933958;29;20171;-73
2022/04/10 06:09:07;;;;;;;5.97;2.60;;;6.90;99.90;;;;;;4933133;29;20282;-74
2022/04/10 06:11:34;;;;;;;6.27;2.77;;;7.20;99.90;;;;;;4916593;29;20235;-73
2022/04/10 06:13:59;;;;;;;9.70;2.70;;;8.70;99.90;;;;;;4933578;29;20219;-73
2022/04/10 06:16:24;;;;;;;8.90;2.83;;;8.70;99.90;;;;;;4933672;29;20207;-73
2022/04/10 06:18:50;;;;;;;5.23;2.20;;;9.20;99.90;;;;;;4916050;29;20665;-73
2022/04/10 06:21:15;;;;;;;6.53;2.43;;;7.90;99.90;;;;;;4917560;29;20319;-74
2022/04/10 06:23:41;;;;;;;6.57;2.50;;;7.50;99.90;;;;;;4926645;29;20212;-72
2022/04/10 06:26:06;;;;;;;9.03;2.97;;;7.30;99.90;;;;;;4917772;29;20208;-72
2022/04/10 06:28:32;;;;;;;9.30;3.03;;;6.70;99.90;;;;;;4933586;29;20290;-72
2022/04/10 06:30:57;;;;;;;8.80;2.50;;;6.80;99.90;;;;;;4913656;29;20605;-72
2022/04/10 06:33:23;;;;;;;10.67;3.00;;;6.90;99.90;;;;;;4924181;29;20200;-72
2022/04/10 06:35:48;;;;;;;12.23;2.97;;;6.60;99.90;;;;;;4917586;29;20226;-72
2022/04/10 06:38:14;;;;;;;7.73;2.73;;;6.30;99.90;;;;;;4933906;29;20643;-72
2022/04/10 06:40:39;;;;;;;8.67;3.10;;;6.30;99.90;;;;;;4934680;29;20223;-72
2022/04/10 06:43:06;;;;;;;8.53;2.40;;;6.50;99.90;;;;;;4934637;29;20230;-72
2022/04/10 06:45:31;;;;;;;8.90;2.83;;;7.20;99.90;;;;;;4935702;29;20222;-71
2022/04/10 06:47:57;;;;;;;13.47;3.07;;;7.40;99.90;;;;;;4935189;29;20215;-70
2022/04/10 06:50:22;;;;;;;6.83;2.63;;;7.30;99.90;;;;;;4936188;29;20215;-74
2022/04/10 06:52:48;;;;;;;13.30;2.60;;;7.10;99.90;;;;;;4915979;29;20207;-71
2022/04/10 06:55:13;;;;;;;7.10;2.93;;;6.80;99.90;;;;;;4933568;29;20229;-73
2022/04/10 06:57:38;;;;;;;10.33;2.83;;;6.70;99.90;;;;;;4916358;29;20179;-73
2022/04/10 07:00:05;;;;;;;8.20;2.93;;;6.50;99.90;;;;;;4932887;29;20241;-73
2022/04/10 07:02:32;;;;;;;10.07;3.57;;;6.60;99.90;;;;;;4925760;29;20212;-72
2022/04/10 07:04:57;;;;;;;8.03;2.93;;;6.70;99.90;;;;;;4915735;29;20689;-73
2022/04/10 07:07:23;;;;;;;6.67;2.37;;;6.70;99.90;;;;;;4915752;29;20263;-71
2022/04/10 07:09:48;;;;;;;12.17;2.90;;;6.80;99.90;;;;;;4915580;29;20267;-72
2022/04/10 07:12:14;;;;;;;11.13;3.30;;;6.70;99.90;;;;;;4916670;29;20172;-74
2022/04/10 07:14:39;;;;;;;9.97;2.93;;;6.80;99.90;;;;;;4933285;29;20251;-73
2022/04/10 07:17:05;;;;;;;9.27;3.13;;;6.60;99.90;;;;;;4916022;29;20235;-72
2022/04/10 07:19:30;;;;;;;9.83;2.77;;;6.30;99.90;;;;;;4933698;29;20222;-75
2022/04/10 07:24:39;;;;;;;9.63;2.40;;;6.70;99.90;;;;;;4948175;29;20211;-73
2022/04/10 07:27:05;;;;;;;10.97;2.70;;;7.00;99.90;;;;;;4945800;29;20204;-74
2022/04/10 07:29:30;;;;;;;9.23;3.17;;;7.00;99.90;;;;;;4936915;29;20211;-73
2022/04/10 07:31:56;;;;;;;12.63;2.90;;;7.10;99.90;;;;;;4929541;29;20211;-74
2022/04/10 07:34:21;;;;;;;9.10;3.10;;;7.20;99.90;;;;;;4936004;29;20744;-74
2022/04/10 07:36:47;;;;;;;8.10;2.30;;;7.30;99.90;;;;;;4936406;29;20180;-73
2022/04/10 07:39:12;;;;;;;9.17;2.63;;;7.30;99.90;;;;;;4918829;29;20641;-73
2022/04/10 07:41:38;;;;;;;7.87;2.67;;;7.20;99.90;;;;;;4935891;29;20216;-74
2022/04/10 07:44:03;;;;;;;9.47;2.93;;;7.20;99.90;;;;;;4918788;29;20323;-73
2022/04/10 07:49:13;;;;;;;7.30;2.77;;;7.00;99.90;;;;;;4935254;29;20801;-74
2022/04/10 07:51:39;;;;;;;10.23;2.70;;;7.10;99.90;;;;;;4936197;29;20266;-73
2022/04/10 07:54:05;;;;;;;10.33;2.83;;;7.20;99.90;;;;;;4934792;29;20736;-74
2022/04/10 07:56:30;;;;;;;8.80;2.80;;;7.10;99.90;;;;;;4918675;29;20243;-73
2022/04/10 07:58:56;;;;;;;10.83;3.00;;;7.10;99.90;;;;;;4905684;29;20231;-73
2022/04/10 08:01:21;;;;;;;13.70;3.00;;;7.00;99.90;;;;;;4916938;29;20305;-73
2022/04/10 08:03:52;;;;;;;14.03;2.93;;;6.70;99.90;;;;;;4935720;29;20208;-72
2022/04/10 08:06:18;;;;;;;8.43;2.93;;;6.70;99.90;;;;;;4936220;29;20275;-74
2022/04/10 08:08:44;;;;;;;8.90;2.43;;;6.80;99.90;;;;;;4917704;29;20215;-74
2022/04/10 08:11:09;;;;;;;7.33;2.80;;;6.90;99.90;;;;;;4918409;29;20216;-72
2022/04/10 08:13:35;;;;;;;10.53;3.57;;;6.90;99.90;;;;;;4918240;29;20689;-73
2022/04/10 08:16:01;;;;;;;7.53;2.80;;;7.00;99.90;;;;;;4918335;29;20180;-74
2022/04/10 08:18:27;;;;;;;14.50;4.73;;;7.50;99.90;;;;;;4934337;29;20242;-74
2022/04/10 08:20:52;;;;;;;15.43;5.63;;;7.90;99.90;;;;;;4903687;29;20700;-75
2022/04/10 08:23:18;;;;;;;11.83;3.03;;;8.40;99.90;;;;;;4935156;29;20275;-73
2022/04/10 08:25:43;;;;;;;11.57;3.70;;;9.10;99.90;;;;;;4935170;29;20227;-73
2022/04/10 08:28:09;;;;;;;7.77;2.73;;;9.70;99.90;;;;;;4934526;29;20235;-72
2022/04/10 08:30:34;;;;;;;8.40;2.43;;;10.10;99.90;;;;;;4934500;29;20222;-73
2022/04/10 08:33:00;;;;;;;9.03;2.57;;;10.40;99.90;;;;;;4929533;29;20242;-73
2022/04/10 08:35:25;;;;;;;8.90;3.00;;;9.90;99.90;;;;;;4935387;29;20215;-73
2022/04/10 08:37:51;;;;;;;11.33;3.37;;;9.30;99.90;;;;;;4935798;29;20789;-74
2022/04/10 08:40:17;;;;;;;15.23;3.00;;;8.80;99.90;;;;;;4935623;29;20275;-73
2022/04/10 08:42:42;;;;;;;10.57;3.07;;;9.00;99.90;;;;;;4936132;29;20215;-73
2022/04/10 08:45:09;;;;;;;10.23;3.20;;;9.80;99.90;;;;;;4935848;29;20574;-75
2022/04/10 08:47:36;;;;;;;11.50;2.50;;;9.90;99.90;;;;;;4935808;29;20227;-75
2022/04/10 08:50:02;;;;;;;10.43;2.87;;;9.90;99.90;;;;;;4918280;29;20351;-74
2022/04/10 08:52:28;;;;;;;10.20;2.13;;;9.20;99.90;;;;;;4935418;29;20302;-73
2022/04/10 08:54:53;;;;;;;9.07;2.37;;;8.70;99.90;;;;;;4915980;29;20235;-73
2022/04/10 08:57:19;;;;;;;10.27;2.93;;;8.00;99.90;;;;;;4916737;29;20670;-73
2022/04/10 08:59:44;;;;;;;17.13;3.87;;;8.00;99.90;;;;;;4898301;29;20254;-72
2022/04/10 09:02:11;;;;;;;7.80;2.70;;;7.90;99.90;;;;;;4909437;29;20243;-72
2022/04/10 09:04:38;;;;;;;12.20;3.07;;;7.80;99.90;;;;;;4916011;29;20213;-73
2022/04/10 09:07:07;;;;;;;10.57;2.70;;;8.00;99.90;;;;;;4899148;29;20571;-74
2022/04/10 09:09:39;;;;;;;8.80;2.60;;;8.20;99.90;;;;;;4898545;29;20189;-71
2022/04/10 09:12:05;;;;;;;6.37;3.13;;;8.50;99.90;;;;;;4915939;29;20211;-73
2022/04/10 09:14:39;;;;;;;8.57;2.67;;;8.40;99.90;;;;;;4898605;29;20220;-73
2022/04/10 09:17:17;;;;;;;9.93;2.77;;;8.40;99.90;;;;;;4910589;29;20249;-74
2022/04/10 09:19:48;;;;;;;10.23;3.20;;;8.90;99.90;;;;;;4903715;29;20686;-73
2022/04/10 09:22:27;;;;;;;10.17;3.63;;;9.30;99.90;;;;;;4912180;29;20212;-73
2022/04/10 09:25:07;;;;;;;12.47;3.47;;;9.30;99.90;;;;;;4898734;29;20184;-73
2022/04/10 09:27:41;;;;;;;11.20;3.67;;;9.60;99.90;;;;;;4885492;29;20235;-73
2022/04/10 09:30:09;;;;;;;14.33;3.83;;;9.80;99.90;;;;;;4913864;29;20303;-73
2022/04/10 09:32:39;;;;;;;10.97;3.57;;;10.00;99.90;;;;;;4907537;29;20226;-73
2022/04/10 09:35:05;;;;;;;11.37;3.23;;;10.70;99.90;;;;;;4905999;29;20593;-74
2022/04/10 09:37:57;;;;;;;7.40;2.97;;;10.90;99.90;;;;;;4880968;29;20591;-73
2022/04/10 09:40:32;;;;;;;10.07;3.50;;;10.10;99.90;;;;;;4898050;29;20224;-73
2022/04/10 09:43:07;;;;;;;9.90;2.53;;;9.20;99.90;;;;;;4897651;29;20203;-73
2022/04/10 09:45:43;;;;;;;9.33;2.63;;;8.60;99.90;;;;;;4912228;29;20704;-72
2022/04/10 09:48:31;;;;;;;10.53;2.87;;;8.60;99.90;;;;;;4897564;29;20744;-73
2022/04/10 09:50:58;;;;;;;8.87;3.20;;;8.90;99.90;;;;;;4913168;29;20585;-72
2022/04/10 09:53:26;;;;;;;8.83;2.77;;;8.80;99.90;;;;;;4903525;29;20223;-72
2022/04/10 09:55:54;;;;;;;8.97;2.73;;;9.10;99.90;;;;;;4916882;29;20207;-73
2022/04/10 09:58:20;;;;;;;8.30;2.77;;;9.20;99.90;;;;;;4933046;29;20351;-73
2022/04/10 10:00:47;;;;;;;8.43;2.90;;;9.20;99.90;;;;;;4930080;29;20681;-73
2022/04/10 10:03:14;;;;;;;5.93;2.23;;;9.90;99.90;;;;;;4931834;29;20230;-72
2022/04/10 10:05:40;;;;;;;9.17;2.53;;;10.80;99.90;;;;;;4952822;29;20202;-73
2022/04/10 10:08:06;;;;;;;9.23;2.30;;;10.70;99.90;;;;;;4935017;29;20716;-72
2022/04/10 10:10:37;;;;;;;10.07;2.67;;;10.90;99.90;;;;;;4952968;29;20219;-72
2022/04/10 10:13:06;;;;;;;4.57;2.00;;;10.90;99.90;;;;;;4953164;28;20669;-73
2022/04/10 10:15:32;;;;;;;11.83;2.53;;;11.00;99.90;;;;;;4953563;29;20179;-72
2022/04/10 10:18:01;;;;;;;5.97;2.20;;;10.90;99.90;;;;;;4952289;29;20254;-71
2022/04/10 10:20:27;;;;;;;8.07;3.27;;;10.70;99.90;;;;;;4935402;29;20660;-73
2022/04/10 10:22:53;;;;;;;7.67;2.83;;;10.20;99.90;;;;;;4952753;28;20597;-73
2022/04/10 10:25:30;;;;;;;7.40;2.23;;;10.10;99.90;;;;;;4949078;28;20208;-72
2022/04/10 10:28:11;;;;;;;5.40;2.53;;;10.00;99.90;;;;;;4924830;29;20176;-73
2022/04/10 10:31:12;;;;;;;8.20;2.40;;;10.00;99.90;;;;;;4926095;29;20184;-72
2022/04/10 10:33:40;;;;;;;7.83;2.83;;;10.00;99.90;;;;;;4950489;28;20244;-73
2022/04/10 10:36:09;;;;;;;9.30;2.67;;;10.10;99.90;;;;;;4935784;29;20214;-74
2022/04/10 10:38:35;;;;;;;12.57;2.80;;;10.50;99.90;;;;;;4951942;28;20289;-72
2022/04/10 10:41:15;;;;;;;11.73;2.60;;;10.90;99.90;;;;;;4950836;29;20641;-72
2022/04/10 10:43:41;;;;;;;20.77;6.50;;;11.00;99.90;;;;;;4952598;28;20219;-72
2022/04/10 10:46:20;;;;;;;7.43;3.10;;;11.40;99.90;;;;;;4952915;29;20223;-71
2022/04/10 10:48:46;;;;;;;8.63;3.13;;;11.10;99.90;;;;;;4952311;29;20187;-71
2022/04/10 10:51:11;;;;;;;9.57;3.27;;;11.00;99.90;;;;;;4952610;28;20586;-72
2022/04/10 10:53:56;;;;;;;9.87;2.80;;;11.20;99.90;;;;;;4953621;28;20234;-71
2022/04/10 10:56:29;;;;;;;4.97;2.27;;;11.60;99.90;;;;;;4938844;29;20301;-74
2022/04/10 10:59:15;;;;;;;8.40;2.30;;;11.50;99.90;;;;;;4949319;29;20238;-73
2022/04/10 11:01:52;;;;;;;5.67;2.77;;;11.20;99.90;;;;;;4932164;29;20226;-73
2022/04/10 11:04:22;;;;;;;8.77;2.93;;;10.90;99.90;;;;;;4957163;28;20234;-74
2022/04/10 11:06:48;;;;;;;5.70;2.33;;;10.60;99.90;;;;;;4940192;29;20179;-73
2022/04/10 11:09:32;;;;;;;6.60;2.37;;;10.40;99.90;;;;;;4939152;29;20270;-71
2022/04/10 11:11:59;;;;;;;9.17;2.40;;;10.30;99.90;;;;;;4959082;29;20232;-72
2022/04/10 11:14:39;;;;;;;8.20;2.47;;;10.30;99.90;;;;;;4970553;28;20219;-73
2022/04/10 11:17:09;;;;;;;10.90;2.40;;;10.30;99.90;;;;;;4975628;29;20209;-73
2022/04/10 11:19:36;;;;;;;6.90;2.30;;;10.20;99.90;;;;;;4949348;29;20236;-76
2022/04/10 11:22:02;;;;;;;5.83;2.13;;;10.00;99.90;;;;;;4958943;29;20736;-76
2022/04/10 11:24:29;;;;;;;5.53;2.13;;;9.90;99.90;;;;;;4958738;28;20722;-72
2022/04/10 11:26:54;;;;;;;6.80;2.80;;;9.60;99.90;;;;;;4955809;28;20587;-72
2022/04/10 11:29:20;;;;;;;5.90;2.40;;;9.50;99.90;;;;;;4955379;29;20303;-72
2022/04/10 11:31:52;;;;;;;7.57;2.37;;;9.50;99.90;;;;;;4916110;29;20215;-71
2022/04/10 11:34:21;;;;;;;8.50;2.40;;;9.50;99.90;;;;;;4956557;28;20219;-74
2022/04/10 11:36:52;;;;;;;8.53;2.67;;;9.40;99.90;;;;;;4939643;29;20202;-71
2022/04/10 11:39:30;;;;;;;5.30;2.00;;;9.30;99.90;;;;;;4955421;29;20580;-75
2022/04/10 11:42:00;;;;;;;16.37;5.13;;;9.00;99.90;;;;;;4956401;29;20215;-73
2022/04/10 11:44:27;;;;;;;9.77;4.20;;;8.90;99.90;;;;;;4955548;28;20246;-72
2022/04/10 11:46:52;;;;;;;6.27;2.63;;;9.20;99.90;;;;;;4955742;29;20207;-74
2022/04/10 11:49:19;;;;;;;8.10;2.77;;;9.50;99.90;;;;;;4954622;28;20218;-71
2022/04/10 11:51:55;;;;;;;7.10;3.20;;;9.70;99.90;;;;;;4955456;29;20179;-70
2022/04/10 11:54:28;;;;;;;6.20;2.10;;;9.90;99.90;;;;;;4955258;28;20219;-72
2022/04/10 11:56:54;;;;;;;7.47;2.13;;;10.00;99.90;;;;;;4924277;29;20218;-71
2022/04/10 11:59:21;;;;;;;6.03;2.43;;;10.10;99.90;;;;;;4937378;29;20241;-72
2022/04/10 12:01:48;;;;;;;4.17;2.77;;;10.10;99.90;;;;;;4915420;29;20222;-71
2022/04/10 12:04:17;;;;;;;7.13;2.47;;;10.10;99.90;;;;;;4955003;28;20235;-70
2022/04/10 12:06:43;;;;;;;8.97;2.43;;;10.00;99.90;;;;;;4937643;29;20183;-71
2022/04/10 12:09:08;;;;;;;7.73;2.00;;;9.70;99.90;;;;;;4936992;29;20207;-71
2022/04/10 12:11:38;;;;;;;8.47;2.53;;;9.80;99.90;;;;;;4946464;29;20246;-71
2022/04/10 12:14:22;;;;;;;6.13;2.47;;;9.70;99.90;;;;;;4935646;29;20239;-74
2022/04/10 12:16:48;;;;;;;6.87;2.43;;;9.60;99.90;;;;;;4926260;29;20242;-72
2022/04/10 12:19:13;;;;;;;6.77;2.17;;;9.70;99.90;;;;;;4933400;29;20246;-72
2022/04/10 12:21:49;;;;;;;7.83;2.10;;;9.60;99.90;;;;;;4936892;29;20302;-72
2022/04/10 12:24:22;;;;;;;6.83;2.77;;;9.50;99.90;;;;;;4937609;29;20218;-74
2022/04/10 12:26:51;;;;;;;8.93;3.00;;;9.50;99.90;;;;;;4954512;28;20253;-72
2022/04/10 12:29:18;;;;;;;8.10;2.63;;;9.50;99.90;;;;;;4953390;29;20700;-72
2022/04/10 12:31:45;;;;;;;9.63;2.80;;;9.60;99.90;;;;;;4946299;29;20301;-73
2022/04/10 12:34:12;;;;;;;7.07;2.80;;;9.50;99.90;;;;;;4956800;28;20211;-75
2022/04/10 12:36:49;;;;;;;6.00;2.27;;;9.60;99.90;;;;;;4938072;29;20189;-74
2022/04/10 12:39:28;;;;;;;7.23;2.50;;;9.60;99.90;;;;;;4937065;29;20289;-75
2022/04/10 12:42:08;;;;;;;7.50;2.43;;;9.70;99.90;;;;;;4932908;29;20219;-74
2022/04/10 12:44:36;;;;;;;5.20;2.13;;;9.90;99.90;;;;;;4935614;29;20226;-74
2022/04/10 12:47:02;;;;;;;4.63;1.83;;;9.80;99.90;;;;;;4936727;29;20234;-69
2022/04/10 12:49:27;;;;;;;6.87;2.20;;;10.00;99.90;;;;;;4953226;28;20211;-68
2022/04/10 12:51:55;;;;;;;6.87;2.57;;;10.10;99.90;;;;;;4953909;29;20234;-69
2022/04/10 12:54:37;;;;;;;6.47;2.37;;;10.10;99.90;;;;;;4937046;29;20608;-72
2022/04/10 12:57:13;;;;;;;7.77;2.23;;;10.00;99.90;;;;;;4954424;28;20207;-74
2022/04/10 12:59:44;;;;;;;3.33;1.70;;;9.60;99.90;;;;;;4953101;29;20214;-72